Airfield :
LOGIN :

Register | Disclaimer

   EN    FR    IT 

 










Legend :    VFR   Marginal VFR   IFR   Intensive IFR   Very Intensive IFR
Visi :
Ceiling :
>= 8 km
>= 3000ft
5 to 8 km
1000 to 3000 ft
1500m to 5 km
500 to 1000 ft
800 to 1500m
200 to 500 ft
< 800m
< 200 ft
Symbols :   Thunderstorms  Fog  Heavy snow  Heavy precipitations  Wind > 20 kt
SIGMETs :     Misc.  Thunderstorms  Icing  Turbulence  Mountain Waves  Volcanic Ashes







- Airport Elevation : 19 ft
- IATA code : BEB
- Download approach charts


EGPL - Benbecula

CURRENT METAR :
  • 190650Z 22008KT 9000 VCSH SCT006 BKN015 13/12 Q1028

EXPIRED METARs :
  • 190620Z 22009KT 9000 VCSH FEW006 BKN011 12/12 Q1028
  • 190550Z AUTO 23008KT 9999 BKN005/// BKN010/// OVC025/// 12/12 Q1028
  • 190520Z AUTO 22009KT 9999 SCT007/// BKN012/// OVC019/// 12/11 Q1028
  • 190450Z AUTO 23008KT 9999 BKN005/// OVC009/// 12/12 Q1028
  • 190420Z AUTO 23011KT 4200 -DZ BKN004/// BKN007/// OVC010/// 12/12 Q1028
  • 190350Z AUTO 22012KT 9999 BKN004/// BKN009/// OVC013/// 12/12 Q1028

TAF TAF EGPL
Valid from the 19 at 06:00 until the 19 at 15:00 UTC


190500Z 1906/1915 24010KT 9999 SCT011 BKN020
TEMPO 1906/1915 SCT005 BKN008
PROB30
TEMPO 1906/1915 2000 -DZ BR BKN003
ATIS : +44 1870 604 818
No reported NOTAMs for that airfield.



MET'MAP, your aeronautical weather chart ! - Copyright ORBIFLY December 2007 - Disclaimer

ORBIFLY MET'MAP TEAM :

Programming & Development : Alexandra Zaïnal
Concept & Development : Baudouin d'Aumeries
Co-Development & Prog : Marc-Olivier Méhu
Technical & hardware support : Manuel Goepfert

Contact : metmap@orbifly.com




SOURCES & CREDITS :

   NOAA